Time;durP1;ratioP1;P1;durP2;ratioP2;P2;SDS_P1;SDS_P2;PMS_P1;PMS_P2;Temp;Humidity;BMP_temperature;BMP_pressure;BME280_temperature;BME280_humidity;BME280_pressure;Samples;Min_cycle;Max_cycle;Signal;HPM_P1;HPM_P2
2024/03/08 00:00:54;;;;;;;15.37;7.60;;;4.10;99.90;;;4.84;100.00;97979.66;4989592;28;20258;-79
2024/03/08 00:03:23;;;;;;;11.85;6.68;;;4.10;99.90;;;4.78;100.00;97977.66;4988180;28;20501;-78
2024/03/08 00:05:51;;;;;;;15.20;7.33;;;4.00;99.90;;;4.74;100.00;97973.75;4986021;28;20203;-77
2024/03/08 00:08:20;;;;;;;16.53;8.30;;;3.90;99.90;;;4.66;100.00;97965.91;4987642;28;20593;-78
2024/03/08 00:10:50;;;;;;;14.73;7.87;;;3.90;99.90;;;4.72;100.00;97963.53;4986597;28;20459;-78
2024/03/08 00:13:18;;;;;;;13.80;7.40;;;3.90;99.90;;;4.68;100.00;97964.84;4987087;28;20475;-77
2024/03/08 00:15:48;;;;;;;13.52;8.05;;;3.90;99.90;;;4.68;100.00;97964.00;4986056;28;20472;-77
2024/03/08 00:18:16;;;;;;;10.63;7.07;;;3.90;99.90;;;4.75;100.00;97959.84;4987334;28;20205;-78
2024/03/08 00:20:45;;;;;;;12.40;7.25;;;4.00;99.90;;;4.65;100.00;97964.31;4987676;28;21282;-78
2024/03/08 00:23:15;;;;;;;20.00;7.33;;;3.90;99.90;;;4.65;100.00;97959.13;4986456;28;20324;-78
2024/03/08 00:25:44;;;;;;;16.13;7.73;;;3.80;99.90;;;4.63;100.00;97966.22;4987937;28;20473;-78
2024/03/08 00:28:16;;;;;;;18.63;7.90;;;3.80;99.90;;;4.54;100.00;97958.44;4987256;28;20468;-78
2024/03/08 00:30:45;;;;;;;13.37;7.10;;;3.80;99.90;;;4.46;100.00;97955.78;4986924;28;20468;-78
2024/03/08 00:33:13;;;;;;;13.37;7.63;;;3.80;99.90;;;4.43;100.00;97956.06;4986055;28;20619;-77
2024/03/08 00:35:42;;;;;;;14.47;8.10;;;3.70;99.90;;;4.36;100.00;97951.66;4986794;28;20911;-78
2024/03/08 00:38:10;;;;;;;15.27;8.13;;;3.60;99.90;;;4.36;100.00;97952.47;4988934;28;20534;-77
2024/03/08 00:40:40;;;;;;;15.38;7.50;;;3.60;99.90;;;4.30;100.00;97952.25;4990939;28;20474;-78
2024/03/08 00:43:08;;;;;;;14.00;8.00;;;3.60;99.90;;;4.27;100.00;97947.38;4990573;28;20246;-77
2024/03/08 00:45:38;;;;;;;12.30;7.40;;;3.50;99.90;;;4.27;100.00;97945.56;4991016;28;20470;-77
2024/03/08 00:48:07;;;;;;;13.27;7.80;;;3.50;99.90;;;4.30;100.00;97939.31;4989915;28;20205;-78
2024/03/08 00:50:36;;;;;;;12.30;7.10;;;3.50;99.90;;;4.28;100.00;97941.22;4986457;28;20461;-78
2024/03/08 00:53:05;;;;;;;13.47;7.17;;;3.50;99.90;;;4.23;100.00;97943.47;4987601;28;20304;-78
2024/03/08 00:55:34;;;;;;;15.98;7.63;;;3.40;99.90;;;4.18;100.00;97938.72;4987301;28;20474;-77
2024/03/08 00:58:03;;;;;;;14.40;7.50;;;3.40;99.90;;;4.22;100.00;97937.47;4985215;28;20224;-77
2024/03/08 01:00:32;;;;;;;13.77;7.90;;;3.40;99.90;;;4.25;100.00;97937.16;4986034;28;20475;-78
2024/03/08 01:03:03;;;;;;;15.70;7.00;;;3.40;99.90;;;4.14;100.00;97929.63;4985814;28;20506;-77
2024/03/08 01:05:31;;;;;;;12.80;7.70;;;3.30;99.90;;;3.96;100.00;97931.41;4987529;28;20466;-77
2024/03/08 01:08:00;;;;;;;14.27;7.43;;;3.10;99.90;;;3.93;100.00;97923.94;4986725;28;20555;-77
2024/03/08 01:10:28;;;;;;;18.43;8.43;;;3.10;99.90;;;3.90;100.00;97922.47;4986913;28;20483;-77
2024/03/08 01:12:59;;;;;;;20.87;9.10;;;3.10;99.90;;;3.98;100.00;97919.16;4987429;28;20460;-77
2024/03/08 01:15:27;;;;;;;15.57;7.93;;;3.20;99.90;;;3.89;100.00;97917.44;4987134;28;20466;-78
2024/03/08 01:17:56;;;;;;;13.83;8.10;;;3.10;99.90;;;3.88;100.00;97923.59;4985697;28;20460;-78
2024/03/08 01:20:26;;;;;;;14.93;8.57;;;3.10;99.90;;;3.86;100.00;97918.56;4987966;28;20460;-77
2024/03/08 01:22:54;;;;;;;16.00;8.20;;;3.10;99.90;;;3.81;100.00;97917.41;4986115;28;20488;-77
2024/03/08 01:25:23;;;;;;;13.75;7.40;;;3.10;99.90;;;3.81;100.00;97912.22;4986512;28;20892;-78
2024/03/08 01:27:53;;;;;;;12.00;7.00;;;3.00;99.90;;;3.86;100.00;97910.81;4990325;28;20205;-78
2024/03/08 01:30:22;;;;;;;14.80;8.63;;;3.10;99.90;;;3.88;100.00;97908.09;4989027;28;20979;-77
2024/03/08 01:32:50;;;;;;;13.30;8.37;;;3.10;99.90;;;3.81;100.00;97902.69;4989047;28;21017;-78
2024/03/08 01:35:21;;;;;;;19.20;8.73;;;3.10;99.90;;;3.78;100.00;97907.34;4989423;28;20472;-78
2024/03/08 01:37:51;;;;;;;11.63;7.63;;;3.00;99.90;;;3.81;100.00;97896.69;4991419;28;20457;-77
2024/03/08 01:40:20;;;;;;;16.07;8.10;;;3.10;99.90;;;3.72;100.00;97897.56;4989666;28;20474;-77
2024/03/08 01:42:48;;;;;;;17.70;8.30;;;2.90;99.90;;;3.71;100.00;97896.78;4990407;28;21002;-77
2024/03/08 01:45:17;;;;;;;15.48;7.50;;;2.90;99.90;;;3.67;100.00;97895.44;4987487;28;20464;-77
2024/03/08 01:47:48;;;;;;;16.90;8.10;;;2.90;99.90;;;3.67;100.00;97890.28;4984567;28;20207;-78
2024/03/08 01:50:17;;;;;;;20.17;9.07;;;3.00;99.90;;;3.74;100.00;97895.66;4985476;28;20546;-77
2024/03/08 01:52:45;;;;;;;20.20;8.50;;;3.00;99.90;;;3.77;100.00;97892.78;4987768;28;20855;-77
2024/03/08 01:55:15;;;;;;;15.77;7.80;;;3.00;99.90;;;3.77;100.00;97893.59;4985875;28;20461;-77
2024/03/08 01:57:45;;;;;;;19.27;9.23;;;3.10;99.90;;;3.73;100.00;97889.69;4985294;28;20463;-77
2024/03/08 02:00:16;;;;;;;15.00;9.10;;;3.00;99.90;;;3.66;100.00;97880.91;4985802;28;20466;-77
2024/03/08 02:02:47;;;;;;;14.70;8.43;;;2.90;99.90;;;3.68;100.00;97873.78;4986279;28;20465;-77
2024/03/08 02:05:16;;;;;;;16.20;9.33;;;3.00;99.90;;;3.72;100.00;97861.38;4983941;28;21149;-78
2024/03/08 02:07:45;;;;;;;15.17;8.00;;;3.00;99.90;;;3.71;100.00;97862.34;4985530;28;20464;-77
2024/03/08 02:10:15;;;;;;;16.00;9.03;;;3.00;99.90;;;3.69;100.00;97856.50;4984381;28;20554;-77
2024/03/08 02:12:43;;;;;;;15.80;8.40;;;3.00;99.90;;;3.63;100.00;97857.09;4984675;28;20933;-78
2024/03/08 02:15:12;;;;;;;15.70;8.30;;;2.90;99.90;;;3.59;100.00;97859.19;4984715;28;20459;-77
2024/03/08 02:17:41;;;;;;;15.80;9.07;;;2.90;99.90;;;3.63;100.00;97850.16;4984508;28;21048;-77
2024/03/08 02:20:13;;;;;;;29.88;7.93;;;2.90;99.90;;;3.60;100.00;97853.06;4985153;28;20474;-77
2024/03/08 02:22:43;;;;;;;20.50;8.80;;;2.90;99.90;;;3.62;100.00;97847.72;4985791;28;20660;-78
2024/03/08 02:25:12;;;;;;;17.30;8.80;;;2.90;99.90;;;3.55;100.00;97852.66;4989383;28;21062;-77
2024/03/08 02:27:41;;;;;;;19.17;9.47;;;2.80;99.90;;;3.53;100.00;97850.25;4985871;28;20476;-77
2024/03/08 02:30:12;;;;;;;13.83;9.27;;;2.80;99.90;;;3.56;100.00;97841.38;4985153;28;20558;-77
2024/03/08 02:32:41;;;;;;;15.32;8.68;;;2.80;99.90;;;3.54;100.00;97843.28;4986472;28;20508;-78
2024/03/08 02:35:10;;;;;;;19.57;9.60;;;2.80;99.90;;;3.57;100.00;97831.84;4986425;28;20213;-78
2024/03/08 02:37:39;;;;;;;11.17;7.90;;;2.80;99.90;;;3.45;100.00;97839.84;4982909;28;20974;-77
2024/03/08 02:40:12;;;;;;;16.20;8.50;;;2.60;99.90;;;3.48;100.00;97834.34;4983898;28;20467;-77
2024/03/08 02:42:40;;;;;;;16.30;8.50;;;2.70;99.90;;;3.53;100.00;97831.34;4984572;28;20491;-77
2024/03/08 02:45:10;;;;;;;17.77;8.33;;;2.70;99.90;;;3.41;100.00;97841.06;4983781;28;20504;-77
2024/03/08 02:47:38;;;;;;;20.67;8.83;;;2.60;99.90;;;3.44;100.00;97827.84;4984178;28;20468;-77
2024/03/08 02:50:08;;;;;;;20.73;10.10;;;2.70;99.90;;;3.40;100.00;97823.16;4984379;28;20798;-77
2024/03/08 02:52:37;;;;;;;18.98;10.68;;;2.70;99.90;;;3.38;100.00;97825.88;4981477;28;20479;-77
2024/03/08 02:55:10;;;;;;;15.90;9.00;;;2.70;99.90;;;3.35;100.00;97823.59;4980545;28;20668;-77
2024/03/08 02:57:41;;;;;;;17.33;9.47;;;2.60;99.90;;;3.37;100.00;97828.59;4980374;28;20212;-78
2024/03/08 03:00:10;;;;;;;27.47;9.87;;;2.70;99.90;;;3.44;100.00;97827.84;4979280;28;20476;-77
2024/03/08 03:02:39;;;;;;;19.43;10.03;;;2.70;99.90;;;3.38;100.00;97823.28;4981590;28;20464;-77
2024/03/08 03:05:09;;;;;;;18.57;10.03;;;2.70;99.90;;;3.28;100.00;97827.72;4981003;28;20603;-78
2024/03/08 03:07:38;;;;;;;20.47;8.90;;;2.70;99.90;;;3.17;100.00;97824.53;4979865;28;20542;-78
2024/03/08 03:10:09;;;;;;;20.30;9.27;;;2.50;99.90;;;3.26;100.00;97821.91;4980723;28;20840;-77
2024/03/08 03:12:38;;;;;;;16.33;9.33;;;2.60;99.90;;;3.25;100.00;97815.09;4980818;28;20465;-77
2024/03/08 03:15:07;;;;;;;19.23;8.77;;;2.60;99.90;;;3.23;100.00;97819.56;4979787;28;20464;-77
2024/03/08 03:17:36;;;;;;;19.00;9.17;;;2.50;99.90;;;3.22;100.00;97817.97;4978860;28;20460;-78
2024/03/08 03:20:10;;;;;;;17.00;10.38;;;2.40;99.90;;;3.16;100.00;97810.78;4980939;28;20885;-78
2024/03/08 03:22:40;;;;;;;16.70;8.90;;;2.40;99.90;;;3.11;100.00;97810.44;4980820;28;20255;-78
2024/03/08 03:25:12;;;;;;;18.23;8.23;;;2.30;99.90;;;3.15;100.00;97811.78;4984397;28;20496;-77
2024/03/08 03:27:41;;;;;;;14.87;8.60;;;2.40;99.90;;;3.09;100.00;97802.00;4983568;28;20860;-77
2024/03/08 03:30:21;;;;;;;18.77;9.27;;;2.20;99.90;;;3.05;100.00;97801.47;4986123;28;20470;-78
2024/03/08 03:32:50;;;;;;;15.45;8.40;;;2.30;99.90;;;3.01;100.00;97801.94;4988627;28;21153;-77
2024/03/08 03:35:21;;;;;;;16.97;8.83;;;2.20;99.90;;;3.01;100.00;97800.16;4988600;28;20805;-78
2024/03/08 03:38:01;;;;;;;18.27;9.43;;;2.20;99.90;;;2.95;100.00;97795.56;4984885;28;20514;-77
2024/03/08 03:40:31;;;;;;;19.73;10.70;;;2.00;99.90;;;2.84;100.00;97800.97;4986029;28;21046;-78
2024/03/08 03:43:00;;;;;;;19.60;10.13;;;2.00;99.90;;;2.93;100.00;97801.84;4984828;28;20447;-77
2024/03/08 03:45:28;;;;;;;16.70;10.00;;;2.10;99.90;;;2.95;100.00;97800.72;4984508;28;20585;-77
2024/03/08 03:47:57;;;;;;;16.37;8.90;;;2.20;99.90;;;2.80;100.00;97799.63;4984841;28;20538;-81
2024/03/08 03:50:25;;;;;;;17.63;9.50;;;2.00;99.90;;;2.83;100.00;97790.75;4981919;28;20828;-78
2024/03/08 03:52:54;;;;;;;20.70;10.77;;;2.10;99.90;;;2.79;100.00;97799.75;4980352;28;20233;-78
2024/03/08 03:55:22;;;;;;;21.60;10.10;;;2.10;99.90;;;2.75;100.00;97794.06;4979556;28;20546;-77
2024/03/08 03:57:52;;;;;;;20.33;10.37;;;2.10;99.90;;;2.75;100.00;97793.25;4980655;28;20464;-78
2024/03/08 04:00:21;;;;;;;17.80;8.80;;;2.10;99.90;;;2.67;100.00;97790.59;4982123;28;20474;-77
2024/03/08 04:02:51;;;;;;;14.47;10.23;;;1.90;99.90;;;2.66;100.00;97794.94;4979502;28;20519;-78
2024/03/08 04:05:19;;;;;;;23.33;11.17;;;1.90;99.90;;;2.67;100.00;97795.75;4977622;28;20878;-81
2024/03/08 04:07:48;;;;;;;18.10;9.65;;;2.00;99.90;;;2.58;100.00;97791.44;4974354;28;20478;-80
2024/03/08 04:10:16;;;;;;;18.10;9.87;;;1.80;99.90;;;2.58;100.00;97794.00;4979764;28;20196;-79
2024/03/08 04:12:44;;;;;;;19.30;9.77;;;1.80;99.90;;;2.63;100.00;97799.56;4979908;28;20475;-80
2024/03/08 04:15:15;;;;;;;18.03;10.50;;;1.90;99.90;;;2.66;100.00;97794.13;4984074;28;20844;-80
2024/03/08 04:17:45;;;;;;;17.60;10.00;;;1.80;99.90;;;2.67;100.00;97791.41;4981179;28;20975;-80
2024/03/08 04:20:14;;;;;;;19.27;10.03;;;1.90;99.90;;;2.60;100.00;97790.34;4984661;28;20457;-80
2024/03/08 04:22:44;;;;;;;15.38;9.23;;;1.90;99.90;;;2.59;100.00;97785.31;4985122;28;20668;-80
2024/03/08 04:25:12;;;;;;;18.30;9.47;;;1.80;99.90;;;2.57;100.00;97782.88;4983896;28;20295;-80
2024/03/08 04:27:42;;;;;;;19.92;10.80;;;1.80;99.90;;;2.63;100.00;97784.09;4981239;28;20490;-82
2024/03/08 04:30:12;;;;;;;17.53;10.77;;;1.80;99.90;;;2.64;100.00;97785.72;4978423;28;20209;-81
2024/03/08 04:32:42;;;;;;;18.90;10.23;;;1.80;99.90;;;2.63;100.00;97789.25;4977219;28;20459;-81
2024/03/08 04:35:12;;;;;;;17.20;9.68;;;1.90;99.90;;;2.68;100.00;97792.19;4978845;28;20480;-80
2024/03/08 04:37:41;;;;;;;17.40;9.55;;;1.90;99.90;;;2.61;100.00;97788.56;4981675;28;20203;-80
2024/03/08 04:40:10;;;;;;;18.83;9.20;;;1.80;99.90;;;2.63;100.00;97795.22;4982324;28;20205;-80
2024/03/08 04:42:43;;;;;;;17.00;10.07;;;1.90;99.90;;;2.66;100.00;97788.97;4983293;28;20513;-80
2024/03/08 04:45:12;;;;;;;20.97;10.23;;;1.90;99.90;;;2.66;100.00;97788.97;4981394;28;20857;-80
2024/03/08 04:47:41;;;;;;;22.73;11.17;;;1.90;99.90;;;2.68;100.00;97794.78;4982852;28;20824;-79
2024/03/08 04:50:11;;;;;;;19.13;10.40;;;1.90;99.90;;;2.68;100.00;97782.69;4985728;28;20466;-80
2024/03/08 04:52:39;;;;;;;22.42;10.85;;;1.90;99.90;;;2.69;100.00;97786.91;4986312;28;20467;-80
2024/03/08 04:55:09;;;;;;;16.23;8.93;;;1.90;99.90;;;2.60;100.00;97785.19;4982460;28;20207;-80
2024/03/08 04:57:37;;;;;;;18.05;10.07;;;1.80;99.90;;;2.58;100.00;97788.84;4981653;28;20462;-80
2024/03/08 05:00:11;;;;;;;18.30;10.30;;;1.80;99.90;;;2.58;100.00;97791.44;4982696;28;21026;-80
2024/03/08 05:02:39;;;;;;;16.77;9.70;;;1.80;99.90;;;2.48;100.00;97789.72;4982435;28;20951;-80
2024/03/08 05:05:11;;;;;;;22.30;11.13;;;1.70;99.90;;;2.41;100.00;97780.94;4982177;28;20530;-80
2024/03/08 05:07:40;;;;;;;19.73;9.10;;;1.70;99.90;;;2.30;100.00;97778.53;4982445;28;20481;-79
2024/03/08 05:10:09;;;;;;;22.92;11.15;;;1.70;99.90;;;2.35;100.00;97794.41;4980650;28;20846;-80
2024/03/08 05:12:38;;;;;;;22.90;12.80;;;1.70;99.90;;;2.32;100.00;97780.97;4977511;28;20827;-80
2024/03/08 05:15:08;;;;;;;24.53;11.00;;;1.60;99.90;;;2.25;100.00;97785.88;4979274;28;21135;-80
2024/03/08 05:17:37;;;;;;;27.00;10.87;;;1.60;99.90;;;2.31;100.00;97785.31;4977493;28;20466;-79
2024/03/08 05:20:08;;;;;;;16.90;10.00;;;1.70;99.90;;;2.26;100.00;97787.50;4979920;28;20474;-79
2024/03/08 05:22:38;;;;;;;22.17;10.57;;;1.60;99.90;;;2.22;100.00;97786.13;4979071;28;20470;-80
2024/03/08 05:25:08;;;;;;;25.07;11.00;;;1.60;99.90;;;2.21;100.00;97781.97;4978189;28;20557;-79
2024/03/08 05:27:37;;;;;;;19.10;10.37;;;1.50;99.90;;;2.17;100.00;97770.28;4977036;28;20467;-79
2024/03/08 05:30:07;;;;;;;23.45;13.00;;;1.50;99.90;;;2.23;100.00;97776.66;4981987;28;20467;-76
2024/03/08 05:32:37;;;;;;;22.07;11.87;;;1.50;99.90;;;2.32;100.00;97771.47;4989885;28;20475;-77
2024/03/08 05:35:07;;;;;;;17.60;10.17;;;1.50;99.90;;;2.35;100.00;97770.38;4990402;28;21415;-77
2024/03/08 05:37:37;;;;;;;21.73;11.00;;;1.50;99.90;;;2.21;100.00;97769.06;4988187;28;20589;-77
2024/03/08 05:40:09;;;;;;;17.33;10.63;;;1.40;99.90;;;2.10;100.00;97771.00;4989523;28;20535;-77
2024/03/08 05:42:44;;;;;;;16.20;9.93;;;1.30;99.90;;;2.07;100.00;97766.13;4987674;28;21163;-76
2024/03/08 05:45:14;;;;;;;17.27;9.80;;;1.30;99.90;;;1.98;100.00;97772.91;4989247;28;20224;-77
2024/03/08 05:47:43;;;;;;;15.17;9.00;;;1.10;99.90;;;1.95;100.00;97774.03;4989346;28;20465;-77
2024/03/08 05:50:11;;;;;;;17.77;8.93;;;1.10;99.90;;;1.91;100.00;97769.28;4990149;28;20544;-77
2024/03/08 05:52:41;;;;;;;20.30;10.50;;;1.10;99.90;;;1.80;100.00;97769.47;4989644;28;20959;-76
2024/03/08 05:55:10;;;;;;;20.97;11.27;;;0.90;99.90;;;1.77;100.00;97765.38;4989279;28;20477;-76
2024/03/08 05:57:39;;;;;;;21.27;9.60;;;1.00;99.90;;;1.72;100.00;97764.19;4991127;28;20935;-76
2024/03/08 06:00:10;;;;;;;19.53;10.60;;;0.90;99.90;;;1.71;100.00;97765.13;4988687;28;20467;-77
2024/03/08 06:02:40;;;;;;;20.50;11.80;;;0.90;99.90;;;1.77;100.00;97760.22;4988321;28;20463;-77
2024/03/08 06:05:11;;;;;;;23.23;10.53;;;0.90;99.90;;;1.77;100.00;97767.94;4989978;28;20487;-77
2024/03/08 06:07:41;;;;;;;23.83;10.57;;;1.00;99.90;;;1.73;100.00;97766.63;4989830;28;20460;-76
2024/03/08 06:10:12;;;;;;;19.97;11.23;;;0.90;99.90;;;1.72;100.00;97774.47;4991609;28;20951;-76
2024/03/08 06:12:41;;;;;;;17.00;9.13;;;0.90;99.90;;;1.62;100.00;97768.53;4987674;28;20461;-77
2024/03/08 06:15:14;;;;;;;20.60;9.40;;;0.80;99.90;;;1.55;100.00;97772.63;4990554;28;20476;-76
2024/03/08 06:17:43;;;;;;;15.53;9.37;;;0.80;99.90;;;1.59;100.00;97779.13;4987660;28;20481;-76
2024/03/08 06:20:12;;;;;;;17.30;9.53;;;0.90;99.90;;;1.52;100.00;97777.09;4986628;28;20466;-76
2024/03/08 06:22:44;;;;;;;19.47;10.30;;;0.80;99.90;;;1.57;100.00;97779.25;4986363;28;20464;-76
2024/03/08 06:25:14;;;;;;;20.00;9.80;;;0.80;99.90;;;1.52;100.00;97774.53;4986307;28;20489;-76
2024/03/08 06:27:43;;;;;;;19.30;10.50;;;0.70;99.90;;;1.55;100.00;97772.63;4986111;28;20857;-76
2024/03/08 06:30:13;;;;;;;20.37;9.73;;;0.80;99.90;;;1.58;100.00;97774.91;4986568;28;20456;-77
2024/03/08 06:32:42;;;;;;;20.60;10.47;;;0.90;99.90;;;1.58;100.00;97769.75;4986492;28;20519;-77
2024/03/08 06:35:11;;;;;;;20.83;10.17;;;0.80;99.90;;;1.54;100.00;97774.38;4985014;28;20468;-77
2024/03/08 06:37:42;;;;;;;19.50;10.57;;;0.80;99.90;;;1.51;100.00;97775.47;4987328;28;20460;-77
2024/03/08 06:40:14;;;;;;;22.93;11.53;;;0.80;99.90;;;1.51;100.00;97775.47;4986097;28;20468;-76
2024/03/08 06:42:43;;;;;;;18.17;10.25;;;0.70;99.90;;;1.56;100.00;97771.69;4985673;28;20476;-76
2024/03/08 06:45:12;;;;;;;24.08;11.00;;;0.80;99.90;;;1.60;100.00;97781.53;4985763;28;20256;-76
2024/03/08 06:47:43;;;;;;;19.80;10.20;;;0.80;99.90;;;1.67;100.00;97769.75;4986127;28;20465;-76
2024/03/08 06:50:12;;;;;;;19.77;10.93;;;0.90;99.90;;;1.82;100.00;97772.69;4985461;28;20463;-76
2024/03/08 06:52:42;;;;;;;31.98;12.45;;;1.00;99.90;;;1.92;100.00;97764.00;4986746;28;20462;-76
2024/03/08 06:55:12;;;;;;;20.33;10.70;;;1.10;99.90;;;1.99;100.00;97764.25;4989980;28;20211;-77
2024/03/08 06:57:41;;;;;;;17.90;10.17;;;1.20;99.90;;;2.09;100.00;97759.88;4990606;28;20487;-77
2024/03/08 07:00:13;;;;;;;24.50;11.07;;;1.30;99.90;;;2.13;100.00;97763.78;4993167;28;20464;-76
2024/03/08 07:02:45;;;;;;;19.80;10.77;;;1.30;99.90;;;2.18;100.00;97764.19;4992631;28;21318;-77
2024/03/08 07:05:14;;;;;;;20.10;11.53;;;1.40;99.90;;;2.17;100.00;97757.41;4991019;28;20464;-77
2024/03/08 07:07:42;;;;;;;22.67;11.93;;;1.40;99.90;;;2.21;100.00;97765.66;4991537;28;20976;-77
2024/03/08 07:10:15;;;;;;;21.83;11.40;;;1.50;99.90;;;2.18;100.00;97764.19;4991100;28;20474;-76
2024/03/08 07:12:43;;;;;;;21.53;11.30;;;1.50;99.90;;;2.21;100.00;97757.94;4988518;28;21809;-76
2024/03/08 07:15:14;;;;;;;24.80;12.47;;;1.50;99.90;;;2.29;100.00;97751.09;4989818;28;20475;-77
2024/03/08 07:17:45;;;;;;;21.83;11.40;;;1.60;99.90;;;2.37;100.00;97753.78;4989558;28;20834;-77
2024/03/08 07:20:15;;;;;;;24.10;11.70;;;1.70;99.90;;;2.37;100.00;97750.38;4989761;28;20947;-77
2024/03/08 07:22:44;;;;;;;24.07;9.87;;;1.60;99.90;;;2.35;100.00;97750.53;4990746;28;20558;-76
2024/03/08 07:25:20;;;;;;;21.80;11.53;;;1.60;99.90;;;2.46;100.00;97744.38;4989811;28;20470;-77
2024/03/08 07:27:52;;;;;;;21.33;11.02;;;1.70;99.90;;;2.53;100.00;97746.22;4990282;28;20930;-77
2024/03/08 07:33:06;;;;;;;23.97;10.87;;;1.90;99.90;;;2.61;100.00;97747.28;4975506;28;20465;-77
2024/03/08 07:35:37;;;;;;;23.70;10.67;;;2.00;99.90;;;2.59;100.00;97746.63;4988899;28;20453;-77
2024/03/08 07:38:06;;;;;;;17.70;9.85;;;2.00;99.90;;;2.60;100.00;97743.91;4989897;28;20466;-77
2024/03/08 07:40:40;;;;;;;19.70;10.73;;;2.00;99.90;;;2.61;100.00;97744.69;4991129;28;20214;-76
2024/03/08 07:43:10;;;;;;;21.35;10.45;;;2.00;99.90;;;2.63;100.00;97742.78;4993977;28;20213;-76
2024/03/08 07:45:39;;;;;;;29.47;11.50;;;2.00;99.90;;;2.66;100.00;97742.50;4994161;28;20285;-77
2024/03/08 07:48:09;;;;;;;23.00;11.13;;;2.00;99.90;;;2.71;100.00;97737.72;4992582;28;20527;-76
2024/03/08 07:50:39;;;;;;;19.47;11.07;;;2.10;99.90;;;2.75;100.00;97732.09;4994711;28;20475;-76
2024/03/08 07:53:09;;;;;;;25.10;10.30;;;2.10;99.90;;;2.76;100.00;97733.75;4993071;28;20870;-76
2024/03/08 07:55:42;;;;;;;17.23;10.07;;;2.10;99.90;;;2.79;100.00;97737.78;4993701;28;20463;-77
2024/03/08 07:58:11;;;;;;;19.87;10.93;;;2.20;99.90;;;2.82;100.00;97727.16;4993456;28;20554;-77
2024/03/08 08:00:42;;;;;;;20.73;10.60;;;2.10;99.90;;;2.90;100.00;97724.69;4992414;28;20553;-77
2024/03/08 08:03:12;;;;;;;25.97;10.50;;;2.20;99.90;;;2.91;100.00;97731.47;4994431;28;20459;-77
2024/03/08 08:05:41;;;;;;;22.40;11.73;;;2.20;99.90;;;2.87;100.00;97724.97;4989162;28;20474;-76
2024/03/08 08:08:10;;;;;;;20.52;10.50;;;2.30;99.90;;;2.89;100.00;97717.88;4988129;28;20239;-77
2024/03/08 08:10:42;;;;;;;20.43;11.67;;;2.40;99.90;;;2.96;100.00;97719.72;4987549;28;20255;-77
2024/03/08 08:13:10;;;;;;;18.43;10.37;;;2.40;99.90;;;2.98;100.00;97714.44;4989081;28;20486;-77
2024/03/08 08:15:39;;;;;;;22.77;11.27;;;2.50;99.90;;;3.02;100.00;97713.16;4988220;28;20468;-76
2024/03/08 08:18:09;;;;;;;21.52;11.55;;;2.60;99.90;;;3.09;100.00;97709.03;4986674;28;20544;-76
2024/03/08 08:20:38;;;;;;;24.80;11.33;;;2.60;99.90;;;3.09;100.00;97711.59;4987783;28;20206;-78
2024/03/08 08:23:07;;;;;;;21.50;10.67;;;2.70;99.90;;;3.21;100.00;97707.03;4988070;28;20510;-77
2024/03/08 08:25:36;;;;;;;17.20;10.27;;;2.60;99.90;;;3.26;100.00;97710.00;4988239;28;20478;-78
2024/03/08 08:28:06;;;;;;;21.45;11.32;;;2.70;99.90;;;3.29;100.00;97704.53;4987332;28;20652;-77
2024/03/08 08:30:34;;;;;;;18.50;11.03;;;2.80;99.90;;;3.40;100.00;97697.31;4988876;28;20207;-77
2024/03/08 08:33:05;;;;;;;18.27;10.57;;;2.80;99.90;;;3.47;100.00;97698.34;4988167;28;20962;-77
2024/03/08 08:35:33;;;;;;;24.20;12.97;;;2.90;99.90;;;3.50;100.00;97692.91;4987099;28;20482;-77
2024/03/08 08:38:03;;;;;;;19.80;10.63;;;2.90;99.90;;;3.59;100.00;97690.34;4988859;28;20972;-77
2024/03/08 08:40:32;;;;;;;24.27;10.60;;;3.00;99.90;;;3.67;100.00;97693.00;4989349;28;20981;-77
2024/03/08 08:43:04;;;;;;;18.38;11.15;;;3.00;99.90;;;3.64;100.00;97694.13;4989384;28;20546;-77
2024/03/08 08:45:34;;;;;;;21.07;10.70;;;3.20;99.90;;;3.74;100.00;97694.00;4989943;28;20208;-77
2024/03/08 08:48:02;;;;;;;24.80;11.37;;;3.20;99.90;;;3.81;100.00;97690.66;4988733;28;20888;-77
2024/03/08 08:50:31;;;;;;;20.20;10.90;;;3.30;99.90;;;3.86;100.00;97692.75;4990530;28;20477;-78
2024/03/08 08:52:59;;;;;;;18.90;10.63;;;3.30;99.90;;;3.92;100.00;97687.00;4989267;28;20985;-77
2024/03/08 08:55:28;;;;;;;19.80;10.60;;;3.40;99.90;;;3.99;100.00;97685.41;4989581;28;20474;-77
2024/03/08 08:57:57;;;;;;;20.07;10.47;;;3.40;99.90;;;3.98;100.00;97683.78;4991601;28;20442;-78
2024/03/08 09:00:26;;;;;;;20.98;10.45;;;3.50;99.90;;;4.04;100.00;97680.56;4991458;28;20518;-77
2024/03/08 09:02:58;;;;;;;23.13;10.67;;;3.60;99.90;;;4.14;100.00;97676.09;4988219;28;20216;-77
2024/03/08 09:05:27;;;;;;;19.37;10.70;;;3.70;99.90;;;4.22;100.00;97668.38;4986906;28;20578;-77
2024/03/08 09:07:56;;;;;;;19.27;10.63;;;3.70;99.90;;;4.22;100.00;97667.53;4987462;28;20857;-78
2024/03/08 09:10:25;;;;;;;20.60;10.77;;;3.70;99.90;;;4.26;100.00;97669.69;4987027;28;20465;-77
2024/03/08 09:12:56;;;;;;;26.07;11.97;;;3.80;99.90;;;4.37;100.00;97673.75;4987778;28;21073;-77
2024/03/08 09:15:28;;;;;;;30.20;11.70;;;3.80;99.90;;;4.42;100.00;97674.91;4987802;28;20474;-77
2024/03/08 09:17:59;;;;;;;18.10;10.90;;;3.90;99.90;;;4.45;100.00;97663.41;4987724;28;20462;-77
2024/03/08 09:20:29;;;;;;;22.20;10.60;;;3.90;99.90;;;4.46;100.00;97668.44;4987342;28;20563;-77
2024/03/08 09:22:57;;;;;;;20.27;10.93;;;3.90;99.90;;;4.51;100.00;97655.03;4987426;28;21003;-77
2024/03/08 09:25:26;;;;;;;19.00;11.27;;;3.90;99.90;;;4.60;100.00;97663.59;4988336;28;20591;-77
2024/03/08 09:27:55;;;;;;;23.23;10.83;;;4.10;99.90;;;4.66;100.00;97660.38;4987368;28;20503;-78
2024/03/08 09:30:23;;;;;;;20.30;10.50;;;4.00;99.90;;;4.66;100.00;97661.19;4987013;28;21559;-77
2024/03/08 09:32:52;;;;;;;20.50;10.77;;;4.10;99.90;;;4.74;100.00;97657.81;4987840;28;20481;-77
2024/03/08 09:35:24;;;;;;;23.30;10.97;;;4.20;99.90;;;4.79;100.00;97665.91;4987264;28;20455;-77
2024/03/08 09:37:53;;;;;;;24.53;11.80;;;4.30;99.90;;;4.78;100.00;97652.16;4987530;28;20461;-78
2024/03/08 09:40:24;;;;;;;26.40;10.03;;;4.30;99.90;;;4.83;100.00;97647.28;4988319;28;20529;-77
2024/03/08 09:42:53;;;;;;;27.23;11.27;;;4.40;99.90;;;4.90;100.00;97648.25;4991016;28;20550;-77
2024/03/08 09:45:23;;;;;;;18.87;10.57;;;4.40;99.90;;;4.96;100.00;97646.81;4992554;28;20567;-77
2024/03/08 09:47:53;;;;;;;18.73;10.03;;;4.40;99.90;;;5.01;100.00;97650.53;4992000;28;20488;-77
2024/03/08 09:50:22;;;;;;;26.93;11.30;;;4.50;99.90;;;4.95;100.00;97640.03;4993899;28;20533;-77
2024/03/08 09:52:52;;;;;;;19.97;12.33;;;4.50;99.90;;;4.96;100.00;97636.47;4990805;28;20469;-77
2024/03/08 09:55:22;;;;;;;24.03;11.80;;;4.50;99.90;;;4.99;100.00;97638.72;4993551;28;21025;-77
2024/03/08 10:00:37;;;;;;;17.30;10.83;;;4.50;99.90;;;5.02;100.00;97625.44;4989348;28;20477;-77
2024/03/08 10:03:06;;;;;;;19.90;11.33;;;4.60;99.90;;;5.13;100.00;97616.53;4989345;28;20486;-77
2024/03/08 10:05:34;;;;;;;23.53;11.83;;;4.60;99.90;;;5.18;100.00;97614.25;4988320;28;20456;-78
2024/03/08 10:08:06;;;;;;;19.53;11.03;;;4.70;99.90;;;5.23;100.00;97612.81;4986643;28;20491;-77
2024/03/08 10:10:35;;;;;;;22.23;11.40;;;4.70;99.90;;;5.29;100.00;97608.72;4985356;28;20470;-77
2024/03/08 10:13:06;;;;;;;18.23;10.50;;;4.80;99.90;;;5.33;100.00;97612.63;4986375;28;21071;-77
2024/03/08 10:15:34;;;;;;;20.67;10.90;;;4.80;99.90;;;5.36;100.00;97610.50;4986406;28;20471;-77
2024/03/08 10:18:03;;;;;;;19.47;11.37;;;4.90;99.90;;;5.41;100.00;97613.44;4987295;28;20481;-77
2024/03/08 10:20:33;;;;;;;19.37;10.30;;;4.90;99.90;;;5.45;100.00;97606.09;4985338;28;20470;-77
2024/03/08 10:23:05;;;;;;;22.47;10.77;;;4.90;99.90;;;5.46;100.00;97598.16;4987846;28;20953;-77
2024/03/08 10:25:39;;;;;;;19.83;10.93;;;5.00;99.90;;;5.51;100.00;97590.72;4985097;28;21052;-77
2024/03/08 10:28:08;;;;;;;18.93;10.60;;;5.00;99.90;;;5.62;100.00;97591.31;4986774;28;20230;-77
2024/03/08 10:30:37;;;;;;;17.50;10.87;;;5.10;99.90;;;5.65;100.00;97598.78;4986946;28;20526;-77